Time;durP1;ratioP1;P1;durP2;ratioP2;P2;SDS_P1;SDS_P2;PMS_P1;PMS_P2;Temp;Humidity;BMP_temperature;BMP_pressure;BME280_temperature;BME280_humidity;BME280_pressure;Samples;Min_cycle;Max_cycle;Signal;HPM_P1;HPM_P2
2023/12/23 00:02:37;;;;;;;0.60;0.60;;;10.40;59.90;;;;;;20777;6721;334766;-78
2023/12/23 00:05:12;;;;;;;1.30;0.80;;;10.40;59.40;;;;;;20836;6702;274080;-77
2023/12/23 00:07:49;;;;;;;6.50;0.90;;;10.60;59.40;;;;;;21058;6702;116838;-78
2023/12/23 00:10:25;;;;;;;1.00;0.70;;;10.50;58.70;;;;;;20725;6702;306792;-78
2023/12/23 00:13:01;;;;;;;4.87;0.90;;;10.60;59.00;;;;;;21089;6692;116611;-78
2023/12/23 00:15:39;;;;;;;1.07;0.50;;;10.20;59.70;;;;;;21010;6714;117193;-77
2023/12/23 00:18:14;;;;;;;1.33;0.75;;;10.20;59.70;;;;;;20824;6699;333346;-78
2023/12/23 00:20:52;;;;;;;1.00;0.80;;;10.30;59.70;;;;;;20705;6699;308100;-76
2023/12/23 00:23:28;;;;;;;1.57;0.70;;;10.50;58.90;;;;;;21023;6713;116711;-77
2023/12/23 00:26:04;;;;;;;1.00;0.73;;;10.40;58.90;;;;;;20748;6713;304972;-77
2023/12/23 00:28:39;;;;;;;1.20;0.73;;;10.50;58.80;;;;;;21008;6717;116912;-77
2023/12/23 00:31:17;;;;;;;1.20;0.80;;;10.40;59.50;;;;;;20632;6718;300932;-77
2023/12/23 00:33:52;;;;;;;1.43;0.80;;;10.40;58.80;;;;;;20676;6738;306796;-78
2023/12/23 00:36:28;;;;;;;0.73;0.50;;;10.50;59.00;;;;;;20982;6721;116862;-76
2023/12/23 00:39:04;;;;;;;1.05;0.65;;;10.50;58.40;;;;;;20654;6756;302330;-77
2023/12/23 00:41:40;;;;;;;0.47;0.40;;;10.60;58.40;;;;;;20960;6730;116891;-77
2023/12/23 00:44:15;;;;;;;4.93;0.60;;;10.40;58.50;;;;;;20970;6726;120786;-77
2023/12/23 00:46:52;;;;;;;1.23;0.68;;;10.20;59.30;;;;;;20798;6715;333818;-77
2023/12/23 00:49:29;;;;;;;2.87;0.87;;;10.20;59.00;;;;;;20762;6730;293720;-77
2023/12/23 00:52:04;;;;;;;1.30;0.87;;;10.50;58.60;;;;;;20716;6749;305787;-78
2023/12/23 00:54:40;;;;;;;1.37;0.87;;;10.70;58.40;;;;;;20954;6750;120582;-77
2023/12/23 00:57:15;;;;;;;1.00;0.70;;;10.60;58.40;;;;;;20958;6735;116836;-78
2023/12/23 00:59:51;;;;;;;0.93;0.50;;;10.20;58.90;;;;;;20863;6750;116966;-77
2023/12/23 01:02:26;;;;;;;1.65;0.70;;;10.00;59.70;;;;;;20697;6743;277000;-77
2023/12/23 01:05:02;;;;;;;1.13;0.60;;;10.00;60.30;;;;;;20929;6743;117213;-77
2023/12/23 01:07:38;;;;;;;1.30;0.80;;;10.00;60.20;;;;;;20934;6743;116970;-77
2023/12/23 01:10:13;;;;;;;0.90;0.80;;;9.80;61.70;;;;;;20550;6743;330261;-77
2023/12/23 01:12:49;;;;;;;2.70;0.70;;;9.90;62.20;;;;;;20936;6741;117664;-78
2023/12/23 01:15:25;;;;;;;1.77;0.77;;;9.70;62.30;;;;;;20967;6731;116795;-78
2023/12/23 01:18:01;;;;;;;2.45;1.02;;;9.70;62.30;;;;;;20708;6741;276377;-78
2023/12/23 01:20:42;;;;;;;1.77;1.00;;;10.10;61.40;;;;;;20627;6722;308103;-78
2023/12/23 01:23:16;;;;;;;2.10;0.90;;;10.10;61.30;;;;;;20710;6738;276248;-77
2023/12/23 01:25:52;;;;;;;2.30;0.90;;;10.60;60.40;;;;;;20766;6723;305226;-77
2023/12/23 01:28:28;;;;;;;1.03;0.90;;;10.60;60.40;;;;;;20762;6723;306418;-78
2023/12/23 01:31:04;;;;;;;1.67;0.90;;;10.70;60.00;;;;;;20580;6723;278357;-77
2023/12/23 01:33:39;;;;;;;2.70;1.17;;;10.80;59.60;;;;;;20782;6723;275433;-77
2023/12/23 01:36:15;;;;;;;0.83;0.73;;;10.80;59.30;;;;;;20972;6723;116947;-77
2023/12/23 01:38:51;;;;;;;1.50;0.90;;;10.60;59.50;;;;;;20781;6723;331957;-77
2023/12/23 01:41:26;;;;;;;1.07;0.67;;;10.50;60.00;;;;;;20763;6794;117308;-78
2023/12/23 01:44:03;;;;;;;1.43;0.87;;;10.30;60.10;;;;;;20975;6723;116988;-77
2023/12/23 01:46:39;;;;;;;0.83;0.60;;;9.80;62.40;;;;;;20995;6723;117534;-77
2023/12/23 01:49:16;;;;;;;2.80;1.00;;;9.80;62.40;;;;;;20747;6723;334660;-78
2023/12/23 01:51:53;;;;;;;1.23;0.70;;;9.80;62.00;;;;;;20991;6723;117523;-78
2023/12/23 01:54:30;;;;;;;3.75;1.00;;;9.80;62.50;;;;;;20766;6723;305282;-77
2023/12/23 01:57:06;;;;;;;1.77;0.83;;;10.20;61.50;;;;;;20758;6723;298522;-77
2023/12/23 01:59:42;;;;;;;3.33;0.90;;;10.20;61.20;;;;;;20700;6724;278736;-78
2023/12/23 02:02:17;;;;;;;3.20;0.90;;;10.40;60.60;;;;;;20740;6724;277440;-76
2023/12/23 02:04:53;;;;;;;1.90;0.80;;;10.60;60.10;;;;;;20984;6721;116781;-79
2023/12/23 02:07:29;;;;;;;2.40;1.10;;;10.30;60.00;;;;;;20779;6722;318305;-77
2023/12/23 02:10:09;;;;;;;1.73;0.90;;;10.30;60.40;;;;;;20840;6739;117408;-78
2023/12/23 02:12:54;;;;;;;1.60;1.00;;;10.20;60.50;;;;;;20916;6742;117285;-77
2023/12/23 02:15:31;;;;;;;1.00;0.90;;;9.90;62.10;;;;;;20949;6737;116862;-77
2023/12/23 02:18:06;;;;;;;1.70;1.00;;;9.60;62.80;;;;;;20711;6737;282777;-77
2023/12/23 02:20:42;;;;;;;2.15;1.02;;;9.70;62.90;;;;;;20619;6722;306889;-78
2023/12/23 02:23:19;;;;;;;2.13;0.80;;;10.00;60.90;;;;;;20999;6722;116817;-79
2023/12/23 02:25:55;;;;;;;2.23;0.97;;;10.00;60.90;;;;;;20978;6722;117396;-78
2023/12/23 02:28:30;;;;;;;1.62;1.10;;;9.80;62.30;;;;;;20748;6722;316844;-78
2023/12/23 02:31:06;;;;;;;2.37;1.08;;;9.90;62.20;;;;;;20565;6722;277932;-77
2023/12/23 02:33:42;;;;;;;2.87;1.10;;;10.20;60.60;;;;;;20765;6722;334411;-78
2023/12/23 02:36:24;;;;;;;1.47;0.80;;;10.40;60.00;;;;;;20929;6737;117868;-77
2023/12/23 02:38:57;;;;;;;2.63;0.83;;;10.30;59.90;;;;;;20948;6737;119966;-77
2023/12/23 02:41:32;;;;;;;2.30;1.10;;;10.00;60.50;;;;;;20716;6737;276041;-77
2023/12/23 02:44:08;;;;;;;1.63;1.00;;;10.00;60.90;;;;;;20929;6620;116952;-77
2023/12/23 02:46:43;;;;;;;2.57;0.70;;;9.90;61.80;;;;;;21030;6713;118267;-76
2023/12/23 02:49:19;;;;;;;1.48;0.90;;;9.70;62.30;;;;;;20824;6713;305691;-77
2023/12/23 02:51:55;;;;;;;1.08;0.80;;;9.80;62.60;;;;;;20861;6713;304806;-77
2023/12/23 02:54:31;;;;;;;2.90;1.10;;;10.30;60.60;;;;;;20828;6702;307713;-76
2023/12/23 02:57:06;;;;;;;0.50;0.43;;;10.30;60.60;;;;;;21060;6703;116955;-76
2023/12/23 02:59:42;;;;;;;1.43;0.60;;;10.10;60.40;;;;;;20955;6703;117779;-75
2023/12/23 03:02:18;;;;;;;0.73;0.53;;;9.90;62.00;;;;;;21019;6703;119912;-76
2023/12/23 03:04:55;;;;;;;1.37;0.70;;;9.60;62.70;;;;;;20819;6703;305451;-75
2023/12/23 03:07:30;;;;;;;1.62;0.98;;;9.70;63.20;;;;;;20823;6703;298871;-76
2023/12/23 03:10:09;;;;;;;1.53;0.70;;;10.00;61.90;;;;;;20851;6717;118334;-76
2023/12/23 03:12:42;;;;;;;1.33;0.70;;;9.70;62.70;;;;;;21016;6718;119689;-76
2023/12/23 03:15:18;;;;;;;1.70;0.70;;;9.70;63.10;;;;;;20819;6716;306972;-76
2023/12/23 03:17:54;;;;;;;1.30;0.70;;;9.70;63.40;;;;;;20773;6717;305773;-76
2023/12/23 03:20:29;;;;;;;1.40;0.67;;;10.10;61.90;;;;;;20649;6720;278823;-76
2023/12/23 03:23:06;;;;;;;1.17;0.60;;;10.30;61.20;;;;;;20816;6711;284070;-76
2023/12/23 03:25:42;;;;;;;1.33;0.43;;;10.40;60.50;;;;;;20820;6696;274433;-77
2023/12/23 03:28:18;;;;;;;0.77;0.57;;;10.50;60.10;;;;;;21026;6696;116985;-76
2023/12/23 03:30:54;;;;;;;0.40;0.23;;;10.00;61.60;;;;;;20887;6700;118275;-75
2023/12/23 03:33:29;;;;;;;0.47;0.20;;;9.90;61.80;;;;;;21025;6714;116816;-76
2023/12/23 03:36:06;;;;;;;0.93;0.23;;;9.70;62.70;;;;;;21018;6711;117846;-76
2023/12/23 03:38:43;;;;;;;0.37;0.33;;;9.40;63.40;;;;;;20787;6711;320997;-76
2023/12/23 03:41:19;;;;;;;0.23;0.23;;;9.60;63.70;;;;;;20854;6696;117468;-76
2023/12/23 03:43:54;;;;;;;0.10;0.10;;;9.50;63.40;;;;;;21076;6696;117070;-75
2023/12/23 03:46:30;;;;;;;0.60;0.30;;;9.40;63.70;;;;;;21043;6702;116628;-76
2023/12/23 03:49:05;;;;;;;0.40;0.20;;;9.20;64.20;;;;;;21042;6702;118020;-75
2023/12/23 03:51:41;;;;;;;0.87;0.40;;;9.10;64.70;;;;;;21055;6703;117314;-75
2023/12/23 03:54:16;;;;;;;1.17;0.30;;;8.90;65.00;;;;;;20810;6703;275280;-75
2023/12/23 03:56:52;;;;;;;1.77;0.73;;;9.10;65.10;;;;;;20841;6703;304728;-76
2023/12/23 03:59:28;;;;;;;0.70;0.40;;;9.50;64.20;;;;;;20797;6703;279348;-75
2023/12/23 04:02:03;;;;;;;0.40;0.30;;;9.80;63.20;;;;;;20827;6703;298301;-74
2023/12/23 04:04:42;;;;;;;0.37;0.20;;;10.10;61.60;;;;;;21064;6703;116719;-75
2023/12/23 04:07:18;;;;;;;0.90;0.25;;;9.90;62.40;;;;;;20840;6703;305262;-75
2023/12/23 04:09:54;;;;;;;0.20;0.20;;;9.80;63.10;;;;;;20959;6703;117701;-76
2023/12/23 04:12:29;;;;;;;0.87;0.20;;;9.80;62.50;;;;;;21037;6702;116630;-75
2023/12/23 04:15:05;;;;;;;0.20;0.20;;;9.60;63.20;;;;;;21038;6703;118062;-75
2023/12/23 04:17:41;;;;;;;0.77;0.30;;;9.30;63.70;;;;;;21080;6703;68452;-75
2023/12/23 04:20:17;;;;;;;0.33;0.33;;;9.00;64.80;;;;;;20949;6703;67248;-76
2023/12/23 04:22:53;;;;;;;0.97;0.23;;;9.00;64.80;;;;;;21085;6703;66806;-76
2023/12/23 04:25:29;;;;;;;0.63;0.47;;;8.80;65.60;;;;;;21082;6703;67697;-76
2023/12/23 04:28:05;;;;;;;2.43;0.30;;;8.80;65.60;;;;;;21080;6702;66965;-76
2023/12/23 04:30:41;;;;;;;2.70;0.53;;;8.70;66.20;;;;;;20919;6702;70468;-75
2023/12/23 04:33:17;;;;;;;0.47;0.30;;;8.70;66.20;;;;;;21076;6702;71852;-75
2023/12/23 04:35:52;;;;;;;0.30;0.30;;;8.60;66.30;;;;;;20869;6702;305347;-75
2023/12/23 04:38:28;;;;;;;0.60;0.20;;;8.90;66.00;;;;;;20865;6702;275105;-76
2023/12/23 04:41:04;;;;;;;0.40;0.13;;;9.40;64.00;;;;;;20882;6702;67767;-76
2023/12/23 04:43:40;;;;;;;0.43;0.40;;;9.30;64.00;;;;;;20867;6702;274139;-77
2023/12/23 04:46:16;;;;;;;0.43;0.40;;;9.80;62.70;;;;;;20866;6702;274990;-76
2023/12/23 04:48:52;;;;;;;0.30;0.30;;;9.80;62.70;;;;;;21079;6702;67408;-76
2023/12/23 04:51:27;;;;;;;0.20;0.20;;;9.70;62.40;;;;;;20846;6774;67210;-76
2023/12/23 04:54:03;;;;;;;0.22;0.22;;;9.50;63.50;;;;;;20864;6702;306864;-76
2023/12/23 04:56:40;;;;;;;0.50;0.20;;;9.60;62.80;;;;;;21079;6702;66912;-76
2023/12/23 04:59:16;;;;;;;0.40;0.23;;;9.60;62.80;;;;;;21051;6702;66803;-76
2023/12/23 05:01:51;;;;;;;0.80;0.40;;;9.40;63.20;;;;;;20865;6702;289937;-76
2023/12/23 05:04:27;;;;;;;2.47;0.20;;;9.50;62.90;;;;;;21081;6703;67308;-76
2023/12/23 05:07:05;;;;;;;0.60;0.10;;;9.50;62.70;;;;;;21081;6703;69021;-76
2023/12/23 05:09:39;;;;;;;1.00;0.20;;;9.40;62.80;;;;;;20797;6703;306020;-77
2023/12/23 05:12:14;;;;;;;0.17;0.17;;;9.40;62.80;;;;;;21055;6703;66864;-75
2023/12/23 05:14:54;;;;;;;0.17;0.17;;;9.50;62.70;;;;;;20856;6703;303903;-75
2023/12/23 05:17:30;;;;;;;0.82;0.20;;;9.60;62.50;;;;;;20845;6703;333258;-76
2023/12/23 05:20:09;;;;;;;0.40;0.17;;;9.90;61.60;;;;;;20970;6703;68249;-79
2023/12/23 05:22:44;;;;;;;0.80;0.27;;;9.80;61.50;;;;;;20866;6703;304876;-76
2023/12/23 05:25:20;;;;;;;0.10;0.10;;;9.80;61.30;;;;;;21079;6703;67897;-76
2023/12/23 05:27:56;;;;;;;0.28;0.22;;;9.80;61.40;;;;;;20866;6703;277002;-75
2023/12/23 05:30:34;;;;;;;0.20;0.20;;;9.80;62.00;;;;;;20913;6703;68106;-76
2023/12/23 05:33:10;;;;;;;0.40;0.20;;;9.70;61.30;;;;;;20859;6703;305660;-75
2023/12/23 05:35:46;;;;;;;0.50;0.30;;;9.70;61.40;;;;;;21080;6703;66948;-74
2023/12/23 05:38:21;;;;;;;0.30;0.30;;;9.60;61.40;;;;;;21082;6701;67371;-74
2023/12/23 05:40:57;;;;;;;0.60;0.20;;;9.40;62.10;;;;;;20671;6702;336719;-74
2023/12/23 05:43:33;;;;;;;0.15;0.10;;;9.70;61.80;;;;;;20807;6702;306470;-73
2023/12/23 05:46:09;;;;;;;0.10;0.10;;;9.70;61.80;;;;;;21050;6702;67411;-74
2023/12/23 05:48:44;;;;;;;0.10;0.10;;;9.60;61.70;;;;;;21064;6702;67187;-75
2023/12/23 05:51:20;;;;;;;0.22;0.20;;;9.40;62.20;;;;;;20616;6702;276590;-76
2023/12/23 05:53:56;;;;;;;0.17;0.17;;;9.40;62.70;;;;;;21050;6702;67093;-75
2023/12/23 05:56:32;;;;;;;0.20;0.15;;;9.40;62.40;;;;;;20830;6702;304237;-74
2023/12/23 05:59:08;;;;;;;0.93;0.37;;;9.50;62.20;;;;;;21029;6702;67063;-73
2023/12/23 06:01:44;;;;;;;0.20;0.20;;;9.40;62.20;;;;;;21042;6702;67291;-74
2023/12/23 06:04:20;;;;;;;0.20;0.20;;;9.40;62.60;;;;;;20827;6702;305275;-74
2023/12/23 06:06:56;;;;;;;0.10;0.10;;;9.30;62.50;;;;;;21076;6702;67625;-75
2023/12/23 06:09:32;;;;;;;0.20;0.10;;;9.40;63.10;;;;;;21016;6702;67294;-72
2023/12/23 06:12:07;;;;;;;0.20;0.20;;;9.20;62.90;;;;;;20859;6702;274909;-74
2023/12/23 06:14:43;;;;;;;0.37;0.17;;;9.30;62.80;;;;;;20864;6703;276869;-75
2023/12/23 06:17:18;;;;;;;0.20;0.20;;;9.60;61.70;;;;;;21074;6703;67390;-76
2023/12/23 06:19:54;;;;;;;0.83;0.10;;;9.60;61.50;;;;;;20977;6703;67370;-75
2023/12/23 06:22:33;;;;;;;0.60;0.30;;;9.20;62.60;;;;;;21074;6703;66820;-75
2023/12/23 06:25:07;;;;;;;0.30;0.20;;;9.30;62.30;;;;;;20857;6703;304377;-74
2023/12/23 06:27:47;;;;;;;0.20;0.20;;;9.30;62.10;;;;;;21076;6703;67130;-75
2023/12/23 06:30:19;;;;;;;0.27;0.27;;;9.30;62.10;;;;;;20942;6703;68277;-74
2023/12/23 06:32:55;;;;;;;0.70;0.20;;;9.20;62.50;;;;;;20865;6703;274405;-76
2023/12/23 06:35:30;;;;;;;0.17;0.17;;;9.30;62.20;;;;;;21074;6703;67378;-75
2023/12/23 06:38:06;;;;;;;0.20;0.20;;;9.30;62.00;;;;;;20858;6703;303854;-75
2023/12/23 06:40:42;;;;;;;0.40;0.20;;;9.50;61.70;;;;;;20691;6703;306944;-75
2023/12/23 06:43:17;;;;;;;0.90;0.10;;;9.80;60.80;;;;;;20862;6703;275658;-75
2023/12/23 06:45:53;;;;;;;0.20;0.20;;;10.00;59.10;;;;;;20858;6703;304330;-75
2023/12/23 06:48:28;;;;;;;0.30;0.20;;;10.20;58.50;;;;;;21075;6703;67063;-76
2023/12/23 06:51:04;;;;;;;0.10;0.10;;;10.00;58.70;;;;;;20671;6702;306877;-74
2023/12/23 07:04:42;;;;;;;0.20;0.20;;;10.50;57.20;;;;;;21534;6550;269861;-75
2023/12/23 07:07:06;;;;;;;0.30;0.20;;;10.60;57.10;;;;;;21457;6569;297962;-75
2023/12/23 07:09:32;;;;;;;0.10;0.10;;;10.60;56.90;;;;;;21633;6569;69090;-75
2023/12/23 07:11:57;;;;;;;1.65;0.30;;;10.30;57.20;;;;;;21395;6657;66839;-76
2023/12/23 07:14:23;;;;;;;0.60;0.20;;;10.00;58.10;;;;;;21261;6630;271973;-74
2023/12/23 07:16:51;;;;;;;0.30;0.30;;;9.90;59.60;;;;;;21393;6655;67369;-75
2023/12/23 07:19:17;;;;;;;0.73;0.20;;;9.80;59.80;;;;;;21400;6655;66287;-75
2023/12/23 07:21:44;;;;;;;0.30;0.20;;;9.60;60.40;;;;;;21219;6640;298540;-75
2023/12/23 07:24:09;;;;;;;0.67;0.20;;;9.60;60.60;;;;;;21398;6655;69038;-75
2023/12/23 07:26:36;;;;;;;0.50;0.30;;;9.50;60.60;;;;;;21231;6640;294281;-76
2023/12/23 07:29:02;;;;;;;0.20;0.20;;;9.60;60.90;;;;;;21447;6640;70713;-74
2023/12/23 07:31:32;;;;;;;0.30;0.30;;;9.50;60.80;;;;;;21171;6657;272750;-74
2023/12/23 07:33:53;;;;;;;0.10;0.10;;;9.60;61.20;;;;;;21467;6630;66716;-74
2023/12/23 07:36:19;;;;;;;0.30;0.20;;;9.60;61.60;;;;;;21175;6655;331371;-77
2023/12/23 07:38:46;;;;;;;0.70;0.40;;;9.80;61.40;;;;;;21230;6640;280154;-75
2023/12/23 07:41:20;;;;;;;0.30;0.30;;;9.70;61.30;;;;;;21184;6657;300430;-79
2023/12/23 07:43:46;;;;;;;1.33;0.30;;;9.90;60.90;;;;;;21261;6631;327501;-75
2023/12/23 07:46:11;;;;;;;0.70;0.30;;;10.10;59.70;;;;;;21260;6632;271704;-78
2023/12/23 07:48:37;;;;;;;0.22;0.20;;;10.20;59.40;;;;;;21260;6633;301921;-76
2023/12/23 07:51:05;;;;;;;0.43;0.30;;;10.30;59.30;;;;;;21243;6634;299518;-76
2023/12/23 07:53:31;;;;;;;0.20;0.20;;;10.30;59.90;;;;;;21228;6633;285699;-76
2023/12/23 07:55:57;;;;;;;0.52;0.43;;;10.40;58.80;;;;;;21252;6633;302135;-77
2023/12/23 07:58:24;;;;;;;0.37;0.37;;;10.40;58.80;;;;;;21184;6657;272791;-76
2023/12/23 08:00:50;;;;;;;0.30;0.30;;;10.40;58.70;;;;;;21472;6631;66775;-76
2023/12/23 08:03:15;;;;;;;0.20;0.20;;;10.20;59.00;;;;;;21177;6655;300638;-76
2023/12/23 08:05:41;;;;;;;0.57;0.30;;;10.10;59.60;;;;;;21228;6640;304815;-78
2023/12/23 08:08:09;;;;;;;0.10;0.10;;;10.20;59.50;;;;;;21403;6657;66338;-77
2023/12/23 08:10:33;;;;;;;0.50;0.20;;;10.00;59.60;;;;;;21260;6631;300054;-78
2023/12/23 08:12:59;;;;;;;0.30;0.30;;;10.10;60.00;;;;;;21258;6632;299874;-79
2023/12/23 08:15:25;;;;;;;0.87;0.30;;;10.10;60.00;;;;;;21183;6655;297499;-77
2023/12/23 08:17:50;;;;;;;0.40;0.30;;;10.20;59.70;;;;;;21262;6630;300383;-78
2023/12/23 08:20:17;;;;;;;0.30;0.30;;;10.10;59.40;;;;;;21487;6631;67248;-77
2023/12/23 08:22:43;;;;;;;0.47;0.30;;;10.20;59.50;;;;;;21397;6657;66387;-77
2023/12/23 08:25:10;;;;;;;0.25;0.20;;;9.80;61.70;;;;;;21260;6630;328544;-74
2023/12/23 08:27:35;;;;;;;0.63;0.20;;;9.80;61.60;;;;;;21477;6631;66117;-75
2023/12/23 08:30:01;;;;;;;0.30;0.30;;;9.70;61.70;;;;;;21175;6655;271984;-75
2023/12/23 08:32:28;;;;;;;1.10;0.65;;;10.00;60.80;;;;;;21226;6640;271961;-76
2023/12/23 08:34:53;;;;;;;1.20;1.20;;;10.00;60.80;;;;;;21184;6657;274307;-76
2023/12/23 08:37:20;;;;;;;1.20;1.20;;;10.20;60.10;;;;;;21179;6655;272977;-75
2023/12/23 08:39:45;;;;;;;0.60;0.60;;;10.40;59.00;;;;;;21224;6640;298495;-76
2023/12/23 08:42:11;;;;;;;1.07;1.07;;;10.50;59.10;;;;;;21404;6655;70977;-78
2023/12/23 08:44:45;;;;;;;0.50;0.50;;;10.30;59.10;;;;;;21240;6640;301893;-81
2023/12/23 08:47:12;;;;;;;0.83;0.83;;;10.20;59.20;;;;;;21305;6397;118006;-77
2023/12/23 08:49:46;;;;;;;1.60;1.00;;;10.10;59.40;;;;;;20831;6716;123603;-76
2023/12/23 08:52:24;;;;;;;1.00;1.00;;;9.80;60.90;;;;;;20756;6714;334457;-78
2023/12/23 08:54:59;;;;;;;1.63;1.53;;;9.80;61.10;;;;;;20962;6735;116778;-79
2023/12/23 08:57:34;;;;;;;1.20;1.10;;;9.80;61.00;;;;;;20818;6699;305798;-77
2023/12/23 09:00:10;;;;;;;1.30;1.30;;;9.80;60.90;;;;;;20857;6718;118602;-75
2023/12/23 09:02:46;;;;;;;2.15;2.05;;;9.90;60.90;;;;;;20687;6744;335049;-78
2023/12/23 09:05:22;;;;;;;2.27;2.17;;;9.80;60.80;;;;;;20965;6724;117742;-81
2023/12/23 09:08:00;;;;;;;2.10;2.00;;;9.80;60.70;;;;;;20944;6724;116542;-81
2023/12/23 09:10:36;;;;;;;2.42;1.77;;;9.50;61.20;;;;;;20659;6732;278435;-81
2023/12/23 09:13:12;;;;;;;3.93;3.70;;;9.70;61.20;;;;;;20758;6745;275805;-78
2023/12/23 09:15:47;;;;;;;1.80;1.70;;;10.00;59.50;;;;;;21051;6717;116760;-78
2023/12/23 09:18:24;;;;;;;2.67;1.73;;;10.00;59.30;;;;;;20937;6730;118965;-78
2023/12/23 09:21:00;;;;;;;0.80;0.80;;;9.70;60.60;;;;;;20618;6715;307619;-82
2023/12/23 09:23:35;;;;;;;1.80;1.70;;;9.80;60.60;;;;;;20970;6728;117690;-81
2023/12/23 09:26:13;;;;;;;2.70;2.50;;;9.90;60.50;;;;;;20680;6732;338961;-80
2023/12/23 09:28:51;;;;;;;1.10;1.00;;;9.90;60.40;;;;;;20962;6732;119545;-76
2023/12/23 09:31:24;;;;;;;1.27;1.03;;;9.90;60.40;;;;;;20729;6804;118062;-77
2023/12/23 09:33:59;;;;;;;1.65;1.55;;;9.70;60.80;;;;;;20731;6732;324802;-77
2023/12/23 09:36:35;;;;;;;2.40;2.20;;;9.80;60.70;;;;;;20965;6729;117601;-77
2023/12/23 09:39:10;;;;;;;1.20;1.20;;;9.80;60.60;;;;;;20971;6729;67680;-77
2023/12/23 09:41:47;;;;;;;2.60;2.50;;;9.70;60.80;;;;;;20825;6702;334294;-77
2023/12/23 09:44:23;;;;;;;1.10;1.10;;;9.80;60.70;;;;;;21060;6694;117797;-77
2023/12/23 09:46:59;;;;;;;2.67;2.58;;;9.80;60.40;;;;;;20732;6735;306150;-76
2023/12/23 09:49:36;;;;;;;2.62;2.42;;;9.90;60.20;;;;;;20715;6717;308014;-75
2023/12/23 09:52:10;;;;;;;4.20;3.67;;;10.20;58.70;;;;;;20879;6745;118959;-78
2023/12/23 09:54:47;;;;;;;6.47;5.93;;;10.30;58.50;;;;;;20703;6752;307651;-78
2023/12/23 09:57:22;;;;;;;7.07;6.50;;;10.30;58.50;;;;;;20702;6747;278611;-76
2023/12/23 09:59:57;;;;;;;4.67;4.27;;;10.50;57.90;;;;;;20883;6730;117463;-75
2023/12/23 10:02:34;;;;;;;1.07;1.07;;;10.10;58.30;;;;;;21021;6710;117419;-75
2023/12/23 10:05:09;;;;;;;0.88;0.88;;;10.10;58.30;;;;;;20715;6745;275984;-76
2023/12/23 10:07:47;;;;;;;1.90;1.80;;;10.40;57.60;;;;;;20764;6740;275775;-76
2023/12/23 10:10:23;;;;;;;4.87;4.50;;;10.40;57.70;;;;;;20639;6741;296271;-75
2023/12/23 10:12:58;;;;;;;1.57;1.50;;;10.60;57.10;;;;;;20924;6742;117617;-76
2023/12/23 10:15:34;;;;;;;0.80;0.80;;;10.50;57.20;;;;;;20759;6730;305143;-77
2023/12/23 10:18:12;;;;;;;2.30;2.20;;;10.50;57.20;;;;;;20714;6743;300682;-75
2023/12/23 10:20:49;;;;;;;3.20;3.00;;;10.60;56.90;;;;;;20639;6730;277406;-77
2023/12/23 10:23:25;;;;;;;3.30;3.00;;;10.80;56.40;;;;;;20952;6745;117005;-76
2023/12/23 10:26:02;;;;;;;1.40;1.30;;;10.20;57.10;;;;;;20970;6730;117269;-78
2023/12/23 10:28:38;;;;;;;1.73;1.63;;;10.20;57.10;;;;;;20988;6730;116984;-76
2023/12/23 10:31:13;;;;;;;1.83;1.73;;;10.00;57.80;;;;;;20862;6715;117452;-79
2023/12/23 10:33:49;;;;;;;3.50;3.30;;;9.80;59.30;;;;;;20801;6719;302246;-77
2023/12/23 10:36:27;;;;;;;1.87;1.77;;;9.90;59.20;;;;;;20733;6733;425371;-79
2023/12/23 10:39:01;;;;;;;0.60;0.60;;;10.20;57.50;;;;;;20985;6726;117172;-79
2023/12/23 10:41:57;;;;;;;1.70;1.60;;;10.20;57.30;;;;;;21081;6715;115986;-75
2023/12/23 10:44:32;;;;;;;4.60;4.20;;;10.00;57.50;;;;;;21041;6729;114111;-76
2023/12/23 10:47:17;;;;;;;;;;;;;;;;;;;;;
2023/12/23 10:49:43;;;;;;;1.13;1.13;;;9.60;59.30;;;;;;20909;6754;73509;-78
2023/12/23 10:52:18;;;;;;;0.60;0.60;;;9.50;59.50;;;;;;21023;6727;66944;-76
2023/12/23 10:54:54;;;;;;;0.30;0.30;;;9.40;59.60;;;;;;21042;6727;117186;-77
2023/12/23 10:57:30;;;;;;;1.27;1.17;;;9.30;59.80;;;;;;21056;6730;67464;-77
2023/12/23 11:00:06;;;;;;;0.77;0.77;;;9.20;60.00;;;;;;20538;6730;117438;-76
2023/12/23 11:02:41;;;;;;;1.80;1.70;;;9.20;60.30;;;;;;20694;6746;304715;-77
2023/12/23 11:05:17;;;;;;;3.28;3.08;;;9.50;59.70;;;;;;20754;6742;305821;-76
2023/12/23 11:07:55;;;;;;;1.45;1.45;;;9.90;59.40;;;;;;20712;6746;278908;-78
2023/12/23 11:10:30;;;;;;;1.17;0.60;;;10.30;57.60;;;;;;20868;6730;119501;-76
2023/12/23 11:13:07;;;;;;;0.60;0.60;;;10.20;57.20;;;;;;20883;6743;67590;-77
2023/12/23 11:15:39;;;;;;;0.32;0.32;;;10.00;57.70;;;;;;20694;6739;305182;-76
2023/12/23 11:18:24;;;;;;;1.87;0.50;;;10.00;57.90;;;;;;20840;6759;117400;-79
2023/12/23 11:20:50;;;;;;;0.30;0.30;;;10.00;58.00;;;;;;20727;6759;117519;-77
2023/12/23 11:23:29;;;;;;;0.30;0.30;;;9.90;59.60;;;;;;20763;6728;304925;-77
2023/12/23 11:26:02;;;;;;;0.40;0.40;;;9.90;59.60;;;;;;20746;6725;305065;-75
2023/12/23 11:28:39;;;;;;;0.23;0.23;;;10.20;58.50;;;;;;20973;6725;117474;-79
2023/12/23 11:31:14;;;;;;;0.83;0.20;;;10.10;58.10;;;;;;20767;6725;117999;-74
2023/12/23 11:33:50;;;;;;;0.30;0.30;;;9.90;59.60;;;;;;20995;6722;116915;-75
2023/12/23 11:36:26;;;;;;;2.13;1.93;;;9.70;60.20;;;;;;20980;6722;117178;-77
2023/12/23 11:39:01;;;;;;;0.47;0.30;;;9.50;60.60;;;;;;20694;6722;337032;-76
2023/12/23 11:41:41;;;;;;;0.30;0.30;;;9.70;60.90;;;;;;20982;6722;117405;-81
2023/12/23 11:44:17;;;;;;;0.50;0.43;;;9.70;60.70;;;;;;20747;6722;306420;-78
2023/12/23 11:46:55;;;;;;;0.37;0.37;;;9.90;61.10;;;;;;20992;6722;116324;-77
2023/12/23 11:49:28;;;;;;;0.40;0.40;;;9.80;60.80;;;;;;20740;6722;277962;-77
2023/12/23 11:52:03;;;;;;;0.50;0.50;;;9.90;61.00;;;;;;20730;6721;275787;-78
2023/12/23 11:54:40;;;;;;;0.30;0.30;;;10.50;60.00;;;;;;20451;6781;306459;-77
2023/12/23 11:57:15;;;;;;;1.60;0.23;;;10.50;59.20;;;;;;20976;6725;116827;-77
2023/12/23 11:59:51;;;;;;;0.30;0.30;;;10.30;59.00;;;;;;20575;6751;336900;-77
2023/12/23 12:02:27;;;;;;;0.40;0.40;;;10.30;59.20;;;;;;20933;6735;118537;-75
2023/12/23 12:05:02;;;;;;;0.40;0.30;;;10.20;59.20;;;;;;20948;6738;117024;-76
2023/12/23 12:07:40;;;;;;;0.97;0.30;;;10.00;59.70;;;;;;20848;6775;117523;-77
2023/12/23 12:10:14;;;;;;;0.40;0.40;;;9.80;61.10;;;;;;20575;6760;310272;-77
2023/12/23 12:12:50;;;;;;;0.20;0.20;;;9.80;61.10;;;;;;20979;6733;116671;-78
2023/12/23 12:15:25;;;;;;;0.23;0.23;;;9.80;60.90;;;;;;20869;6780;117076;-78
2023/12/23 12:18:01;;;;;;;0.40;0.40;;;9.70;61.20;;;;;;20727;6750;334569;-80
2023/12/23 12:20:36;;;;;;;0.80;0.32;;;9.80;61.30;;;;;;20547;6758;279425;-79
2023/12/23 12:23:16;;;;;;;0.30;0.30;;;10.10;59.90;;;;;;20934;6743;116980;-79
2023/12/23 12:25:51;;;;;;;0.83;0.83;;;10.10;59.60;;;;;;20804;6714;275317;-82
2023/12/23 12:28:30;;;;;;;0.43;0.43;;;10.20;59.70;;;;;;20777;6713;335361;-78
2023/12/23 12:31:09;;;;;;;0.30;0.30;;;10.30;59.00;;;;;;20850;6716;117532;-79
2023/12/23 12:33:47;;;;;;;0.40;0.40;;;10.10;59.50;;;;;;20916;6742;117865;-79
2023/12/23 12:36:23;;;;;;;0.70;0.40;;;10.20;60.30;;;;;;20668;6732;334561;-81
2023/12/23 12:38:59;;;;;;;0.30;0.30;;;10.20;59.70;;;;;;20972;6718;116693;-82
2023/12/23 12:41:37;;;;;;;0.17;0.17;;;10.00;59.70;;;;;;20980;6718;116770;-78
2023/12/23 12:44:12;;;;;;;0.77;0.13;;;10.00;59.60;;;;;;20756;6718;275165;-80
2023/12/23 12:46:50;;;;;;;0.10;0.10;;;10.10;59.10;;;;;;20975;6718;117443;-81
2023/12/23 12:49:26;;;;;;;0.30;0.30;;;10.10;58.70;;;;;;20919;6718;116797;-77
2023/12/23 12:52:02;;;;;;;0.30;0.30;;;10.00;59.10;;;;;;20971;6718;126565;-79
2023/12/23 12:54:38;;;;;;;0.20;0.20;;;9.80;60.40;;;;;;21019;6716;116890;-81
2023/12/23 12:57:13;;;;;;;0.23;0.23;;;9.80;60.40;;;;;;21018;6716;116442;-77
2023/12/23 12:59:53;;;;;;;0.27;0.27;;;9.70;60.50;;;;;;20961;6716;116983;-82
2023/12/23 13:02:28;;;;;;;0.30;0.30;;;9.60;60.60;;;;;;20846;6696;303552;-79
2023/12/23 13:05:04;;;;;;;0.20;0.20;;;9.90;60.00;;;;;;20863;6696;275157;-77
2023/12/23 13:07:39;;;;;;;0.20;0.20;;;10.30;57.90;;;;;;21072;6696;116911;-80
2023/12/23 13:10:17;;;;;;;0.10;0.10;;;10.30;57.50;;;;;;20927;6696;118060;-83
2023/12/23 13:12:55;;;;;;;0.23;0.23;;;10.10;57.40;;;;;;20853;6697;302161;-79
2023/12/23 13:15:29;;;;;;;0.20;0.20;;;10.20;56.90;;;;;;20867;6697;273943;-79
2023/12/23 13:18:04;;;;;;;0.60;0.40;;;10.60;56.20;;;;;;20827;6697;332664;-77
2023/12/23 13:20:40;;;;;;;0.20;0.15;;;10.80;55.30;;;;;;20722;6697;306704;-83
2023/12/23 13:23:16;;;;;;;0.80;0.30;;;11.10;54.80;;;;;;20853;6697;292191;-79
2023/12/23 13:25:51;;;;;;;0.30;0.30;;;11.20;54.30;;;;;;21049;6697;116689;-75
2023/12/23 13:28:28;;;;;;;0.20;0.20;;;10.70;55.10;;;;;;21043;6696;116624;-77
2023/12/23 13:31:03;;;;;;;0.20;0.20;;;10.70;55.10;;;;;;20681;6697;305970;-77
2023/12/23 13:33:39;;;;;;;0.20;0.20;;;10.70;55.00;;;;;;21072;6697;116587;-77
2023/12/23 13:36:17;;;;;;;0.20;0.20;;;10.40;55.70;;;;;;21034;6697;143210;-80